Time;durP1;ratioP1;P1;durP2;ratioP2;P2;SDS_P1;SDS_P2;PMS_P1;PMS_P2;Temp;Humidity;BMP_temperature;BMP_pressure;BME280_temperature;BME280_humidity;BME280_pressure;Samples;Min_cycle;Max_cycle;Signal;HPM_P1;HPM_P2
2021/12/09 00:01:03;;;;;;;7.55;1.90;;;;;;;0.34;100.00;91627.34;2103734;28;20012;-85
2021/12/09 00:02:06;;;;;;;7.03;2.05;;;;;;;0.31;100.00;91628.13;2098121;28;20127;-86
2021/12/09 00:03:07;;;;;;;4.88;1.80;;;;;;;0.24;100.00;91626.28;2090549;28;20041;-85
2021/12/09 00:04:12;;;;;;;8.35;1.95;;;;;;;0.24;100.00;91620.28;2082924;28;20017;-85
2021/12/09 00:05:19;;;;;;;5.72;1.73;;;;;;;0.29;100.00;91632.25;2099616;28;20116;-85
2021/12/09 00:06:25;;;;;;;3.58;1.90;;;;;;;0.38;100.00;91629.94;2106717;28;20031;-85
2021/12/09 00:07:27;;;;;;;5.53;2.10;;;;;;;0.34;100.00;91637.84;2090656;28;20024;-86
2021/12/09 00:08:29;;;;;;;2.42;1.63;;;;;;;0.24;100.00;91634.16;2090406;28;20551;-85
2021/12/09 00:09:30;;;;;;;3.47;1.95;;;;;;;0.24;100.00;91636.06;2094138;28;20185;-85
2021/12/09 00:10:34;;;;;;;9.38;1.95;;;;;;;0.10;100.00;91638.78;2092385;28;20052;-86
2021/12/09 00:11:45;;;;;;;4.15;1.70;;;;;;;0.01;100.00;91635.84;2101476;28;20085;-86
2021/12/09 00:12:53;;;;;;;2.72;1.65;;;;;;;-0.03;100.00;91633.25;2096599;28;20098;-85
2021/12/09 00:13:55;;;;;;;5.18;2.13;;;;;;;0.16;100.00;91639.88;2095288;28;20052;-85
2021/12/09 00:14:56;;;;;;;5.13;1.70;;;;;;;0.37;100.00;91633.72;2090251;28;20024;-86
2021/12/09 00:15:58;;;;;;;4.47;2.10;;;;;;;0.40;100.00;91633.69;2087661;28;20578;-86
2021/12/09 00:17:06;;;;;;;3.38;1.75;;;;;;;0.41;100.00;91639.69;2092579;28;20024;-85
2021/12/09 00:18:09;;;;;;;3.50;1.77;;;;;;;0.34;100.00;91637.09;2091061;28;20033;-86
2021/12/09 00:19:10;;;;;;;6.40;1.75;;;;;;;0.17;100.00;91649.22;2106657;28;20040;-85
2021/12/09 00:20:18;;;;;;;3.83;1.85;;;;;;;0.26;100.00;91639.03;2106720;28;20089;-86
2021/12/09 00:21:19;;;;;;;2.95;1.55;;;;;;;0.28;100.00;91649.16;2104217;28;20020;-85
2021/12/09 00:22:20;;;;;;;2.85;1.42;;;;;;;0.31;100.00;91651.78;2098851;28;20020;-85
2021/12/09 00:23:22;;;;;;;3.90;1.50;;;;;;;0.36;100.00;91640.84;2107443;28;20020;-85
2021/12/09 00:24:26;;;;;;;4.95;1.42;;;;;;;0.27;100.00;91647.69;2097378;28;20024;-85
2021/12/09 00:25:28;;;;;;;4.10;1.50;;;;;;;0.16;100.00;91645.84;2092298;28;20119;-85
2021/12/09 00:26:29;;;;;;;5.25;1.90;;;;;;;0.16;100.00;91645.13;2098375;28;20351;-85
2021/12/09 00:27:30;;;;;;;2.90;1.45;;;;;;;0.04;100.00;91651.56;2106242;28;20027;-85
2021/12/09 00:28:31;;;;;;;3.90;1.40;;;;;;;0.15;100.00;91647.00;2096235;28;20038;-85
2021/12/09 00:29:32;;;;;;;2.45;1.40;;;;;;;0.07;100.00;91645.53;2098500;28;20032;-86
2021/12/09 00:30:34;;;;;;;2.40;1.55;;;;;;;0.12;100.00;91649.66;2090179;28;20028;-85
2021/12/09 00:31:35;;;;;;;2.35;1.23;;;;;;;0.09;100.00;91647.78;2098395;28;20025;-85
2021/12/09 00:32:37;;;;;;;3.80;1.25;;;;;;;0.13;100.00;91648.50;2094782;28;20045;-85
2021/12/09 00:33:43;;;;;;;3.78;1.38;;;;;;;0.10;100.00;91647.41;2090283;28;20033;-85
2021/12/09 00:34:48;;;;;;;2.67;1.50;;;;;;;0.05;100.00;91649.72;2090862;28;20413;-86
2021/12/09 00:35:57;;;;;;;3.25;1.10;;;;;;;0.09;100.00;91651.19;2082897;28;20074;-85
2021/12/09 00:37:15;;;;;;;2.45;1.35;;;;;;;-0.02;100.00;91658.38;2091922;28;20655;-85
2021/12/09 00:38:23;;;;;;;1.95;1.50;;;;;;;0.12;100.00;91647.03;2096687;28;20056;-85
2021/12/09 00:39:24;;;;;;;2.55;1.13;;;;;;;0.02;100.00;91656.47;2099078;28;20028;-86
2021/12/09 00:40:25;;;;;;;4.15;1.25;;;;;;;0.04;100.00;91653.44;2100908;28;20384;-85
2021/12/09 00:41:26;;;;;;;2.17;1.80;;;;;;;0.13;100.00;91662.41;2106450;28;20035;-86
2021/12/09 00:42:27;;;;;;;1.75;1.20;;;;;;;0.09;100.00;91653.03;2098125;28;20107;-85
2021/12/09 00:43:28;;;;;;;2.83;1.08;;;;;;;0.16;100.00;91660.88;2089746;28;20024;-86
2021/12/09 00:44:29;;;;;;;3.17;1.27;;;;;;;0.22;100.00;91661.94;2089984;28;20021;-86
2021/12/09 00:45:31;;;;;;;3.92;1.50;;;;;;;0.27;100.00;91658.19;2106448;28;20074;-86
2021/12/09 00:46:32;;;;;;;4.03;1.40;;;;;;;0.17;100.00;91654.47;2106487;28;20472;-85
2021/12/09 00:47:37;;;;;;;2.88;1.23;;;;;;;0.36;100.00;91664.50;2101528;28;20115;-85
2021/12/09 00:48:45;;;;;;;2.72;1.38;;;;;;;0.30;100.00;91665.28;2103164;28;20092;-85
2021/12/09 00:49:50;;;;;;;3.08;1.52;;;;;;;0.19;100.00;91658.22;2092022;28;20233;-86
2021/12/09 00:50:57;;;;;;;4.50;1.35;;;;;;;0.16;100.00;91658.25;2090890;28;20671;-86
2021/12/09 00:52:05;;;;;;;1.95;1.40;;;;;;;0.08;100.00;91657.53;2106416;28;20124;-86
2021/12/09 00:53:06;;;;;;;1.95;1.15;;;;;;;0.13;100.00;91667.66;2088557;28;20021;-85
2021/12/09 00:54:08;;;;;;;2.33;1.40;;;;;;;0.09;100.00;91663.53;2089749;28;20056;-85
2021/12/09 00:55:12;;;;;;;2.72;1.40;;;;;;;0.04;100.00;91663.94;2098033;28;20496;-85
2021/12/09 00:56:14;;;;;;;4.55;1.50;;;;;;;0.06;100.00;91661.69;2105907;28;20453;-86
2021/12/09 00:57:18;;;;;;;1.42;1.33;;;;;;;0.19;100.00;91668.75;2100897;28;20028;-84
2021/12/09 00:58:20;;;;;;;2.60;1.48;;;;;;;0.08;100.00;91662.78;2106767;28;20123;-86
2021/12/09 00:59:21;;;;;;;6.28;1.73;;;;;;;0.05;100.00;91670.72;2097721;28;20025;-85
2021/12/09 01:00:25;;;;;;;2.63;1.23;;;;;;;0.06;100.00;91666.97;2090012;28;20040;-85
2021/12/09 01:01:31;;;;;;;3.38;1.77;;;;;;;0.04;100.00;91667.31;2090644;28;20024;-85
2021/12/09 01:02:34;;;;;;;4.40;1.73;;;;;;;0.02;100.00;91661.72;2097559;28;20108;-85
2021/12/09 01:03:36;;;;;;;2.50;1.75;;;;;;;-0.03;100.00;91664.75;2097837;28;20028;-86
2021/12/09 01:04:41;;;;;;;3.17;1.67;;;;;;;0.01;100.00;91662.13;2106604;28;20023;-86
2021/12/09 01:05:47;;;;;;;4.47;1.75;;;;;;;-0.11;100.00;91666.66;2106883;28;20473;-85
2021/12/09 01:06:50;;;;;;;2.67;1.60;;;;;;;0.03;100.00;91670.34;2098546;28;20111;-85
2021/12/09 01:07:54;;;;;;;6.13;2.03;;;;;;;0.22;100.00;91662.72;2089923;28;20029;-86
2021/12/09 01:08:58;;;;;;;4.53;2.17;;;;;;;0.09;100.00;91661.69;2098414;28;20016;-84
2021/12/09 01:09:59;;;;;;;6.63;1.80;;;;;;;0.08;100.00;91668.03;2090402;28;20036;-86
2021/12/09 01:11:01;;;;;;;3.80;2.08;;;;;;;0.03;100.00;91662.47;2098003;28;20021;-86
2021/12/09 01:12:04;;;;;;;3.42;2.15;;;;;;;-0.01;100.00;91667.72;2098091;28;20020;-86
2021/12/09 01:13:05;;;;;;;8.75;2.17;;;;;;;0.29;100.00;91672.41;2106555;28;20028;-86
2021/12/09 01:14:06;;;;;;;6.30;2.00;;;;;;;0.23;100.00;91668.72;2103256;28;20029;-85
2021/12/09 01:15:17;;;;;;;2.97;1.80;;;;;;;0.09;100.00;91663.53;2089410;28;20481;-85
2021/12/09 01:16:18;;;;;;;4.53;2.13;;;;;;;0.09;100.00;91666.16;2084146;28;20037;-85
2021/12/09 01:17:19;;;;;;;6.78;2.28;;;;;;;0.05;100.00;91665.47;2089330;28;20033;-84
2021/12/09 01:18:21;;;;;;;4.70;2.05;;;;;;;0.10;100.00;91662.44;2110460;28;20488;-85
2021/12/09 01:19:22;;;;;;;2.70;2.00;;;;;;;0.00;100.00;91664.00;2089999;28;20078;-85
2021/12/09 01:20:25;;;;;;;8.65;1.83;;;;;;;0.11;100.00;91666.53;2097430;28;20028;-85
2021/12/09 01:21:26;;;;;;;6.53;2.47;;;;;;;0.20;100.00;91661.59;2091439;28;20024;-86
2021/12/09 01:22:36;;;;;;;4.43;2.33;;;;;;;-0.02;100.00;91661.00;2089385;28;20536;-85
2021/12/09 01:23:37;;;;;;;8.27;2.80;;;;;;;0.19;100.00;91663.47;2090719;28;20020;-84
2021/12/09 01:24:43;;;;;;;7.22;2.25;;;;;;;0.02;100.00;91664.34;2097725;28;20645;-85
2021/12/09 01:25:45;;;;;;;7.05;3.08;;;;;;;0.39;100.00;91674.22;2093803;28;20032;-85
2021/12/09 01:26:48;;;;;;;5.65;2.45;;;;;;;0.32;100.00;91671.66;2089712;28;20048;-85
2021/12/09 01:27:52;;;;;;;5.25;2.13;;;;;;;0.21;100.00;91668.34;2098331;28;20095;-85
2021/12/09 01:28:58;;;;;;;2.88;1.83;;;;;;;0.37;100.00;91676.50;2098139;28;20040;-86
2021/12/09 01:30:06;;;;;;;3.83;2.20;;;;;;;0.20;100.00;91674.75;2090384;28;20092;-85
2021/12/09 01:31:08;;;;;;;5.13;2.25;;;;;;;0.21;100.00;91678.84;2083133;28;20060;-85
2021/12/09 01:32:12;;;;;;;5.32;2.30;;;;;;;0.18;100.00;91682.28;2096589;28;20111;-85
2021/12/09 01:33:14;;;;;;;6.32;2.17;;;;;;;0.06;100.00;91674.84;2098785;28;20020;-86
2021/12/09 01:34:16;;;;;;;6.88;2.60;;;;;;;0.03;100.00;91676.34;2097352;28;20081;-85
2021/12/09 01:35:33;;;;;;;7.28;2.50;;;;;;;0.28;100.00;91678.81;2089678;28;20063;-85
2021/12/09 01:36:36;;;;;;;5.75;2.00;;;;;;;0.30;100.00;91686.31;2091669;28;20029;-85
2021/12/09 01:37:41;;;;;;;7.05;2.13;;;;;;;0.10;100.00;91678.19;2088369;28;20075;-86
2021/12/09 01:38:43;;;;;;;3.83;2.58;;;;;;;-0.02;100.00;91682.75;2095205;28;20025;-85
2021/12/09 01:39:46;;;;;;;6.00;2.15;;;;;;;0.10;100.00;91684.19;2093993;28;20021;-86
2021/12/09 01:40:47;;;;;;;7.95;2.40;;;;;;;-0.10;100.00;91681.28;2101801;28;20087;-85
2021/12/09 01:41:48;;;;;;;5.97;2.20;;;;;;;-0.11;100.00;91685.06;2093537;28;20170;-86
2021/12/09 01:42:55;;;;;;;7.03;2.35;;;;;;;-0.11;100.00;91684.31;2093765;28;20431;-86
2021/12/09 01:43:57;;;;;;;6.40;2.55;;;;;;;-0.13;100.00;91683.94;2106882;28;20020;-86
2021/12/09 01:44:57;;;;;;;2.58;1.95;;;;;;;-0.12;100.00;91683.56;2097672;28;20115;-86
2021/12/09 01:46:11;;;;;;;6.50;2.30;;;;;;;0.00;100.00;91685.00;2097609;28;20614;-86
2021/12/09 01:47:13;;;;;;;10.75;2.47;;;;;;;-0.03;100.00;91680.50;2098970;28;20024;-86
2021/12/09 01:48:14;;;;;;;7.32;2.42;;;;;;;-0.06;100.00;91679.38;2105470;28;20576;-86
2021/12/09 01:49:17;;;;;;;5.25;2.38;;;;;;;0.01;100.00;91688.38;2098467;28;20830;-85
2021/12/09 01:50:19;;;;;;;3.75;2.05;;;;;;;0.08;100.00;91688.31;2105246;28;20024;-85
2021/12/09 01:51:20;;;;;;;7.60;2.30;;;;;;;0.10;100.00;91670.31;2089928;27;20025;-86
2021/12/09 01:52:21;;;;;;;7.68;2.42;;;;;;;0.04;100.00;91683.09;2100935;28;20036;-85
2021/12/09 01:53:22;;;;;;;8.15;2.35;;;;;;;0.02;100.00;91682.00;2097699;28;20016;-85
2021/12/09 01:54:24;;;;;;;6.50;2.40;;;;;;;0.02;100.00;91682.72;2106641;28;20476;-86
2021/12/09 01:55:26;;;;;;;3.92;2.10;;;;;;;-0.07;100.00;91674.53;2104983;28;20032;-85
2021/12/09 01:56:38;;;;;;;3.50;2.20;;;;;;;0.02;100.00;91680.09;2089699;28;20025;-86
2021/12/09 01:57:39;;;;;;;7.25;2.25;;;;;;;0.12;100.00;91679.28;2098780;28;20024;-86
2021/12/09 01:58:40;;;;;;;7.45;2.30;;;;;;;0.11;100.00;91675.16;2089507;28;20383;-86
2021/12/09 01:59:41;;;;;;;9.18;2.90;;;;;;;0.03;100.00;91667.72;2095738;28;20032;-85
2021/12/09 02:00:42;;;;;;;7.93;2.55;;;;;;;0.07;100.00;91676.31;2097433;28;20441;-86
2021/12/09 02:01:44;;;;;;;5.60;2.03;;;;;;;0.16;100.00;91679.28;2097089;28;20020;-85
2021/12/09 02:02:46;;;;;;;7.05;2.58;;;;;;;0.21;100.00;91684.09;2096421;28;20024;-85
2021/12/09 02:03:48;;;;;;;3.85;2.00;;;;;;;0.11;100.00;91683.06;2092674;28;20493;-86
2021/12/09 02:04:49;;;;;;;4.45;2.20;;;;;;;0.03;100.00;91683.47;2088270;28;20036;-85
2021/12/09 02:05:53;;;;;;;4.95;2.55;;;;;;;-0.02;100.00;91692.50;2096093;28;20020;-85
2021/12/09 02:06:55;;;;;;;9.52;2.50;;;;;;;0.07;100.00;91686.84;2092318;28;20024;-85
2021/12/09 02:07:56;;;;;;;3.65;2.30;;;;;;;0.07;100.00;91687.56;2093584;28;20036;-86
2021/12/09 02:08:58;;;;;;;6.10;2.15;;;;;;;0.20;100.00;91693.13;2097482;28;20039;-85
2021/12/09 02:10:02;;;;;;;6.50;2.67;;;;;;;0.19;100.00;91689.75;2105671;28;20556;-85
2021/12/09 02:11:04;;;;;;;4.15;2.22;;;;;;;0.12;100.00;91691.69;2083551;28;20026;-85
2021/12/09 02:12:06;;;;;;;7.97;2.60;;;;;;;0.07;100.00;91697.34;2095564;28;20077;-85
2021/12/09 02:13:07;;;;;;;3.85;2.00;;;;;;;-0.04;100.00;91700.78;2093094;28;20456;-85
2021/12/09 02:14:11;;;;;;;8.10;2.55;;;;;;;0.01;100.00;91702.25;2090585;28;20021;-85
2021/12/09 02:15:14;;;;;;;6.70;1.92;;;;;;;-0.11;100.00;91697.44;2097778;28;20016;-86
2021/12/09 02:16:15;;;;;;;8.30;2.13;;;;;;;-0.08;100.00;91696.69;2105039;28;20020;-86
2021/12/09 02:17:16;;;;;;;3.40;1.92;;;;;;;-0.16;100.00;91701.22;2105431;28;20047;-85
2021/12/09 02:18:17;;;;;;;7.32;2.00;;;;;;;-0.07;100.00;91700.78;2089202;28;20043;-85
2021/12/09 02:19:18;;;;;;;7.53;2.30;;;;;;;-0.03;100.00;91693.66;2105261;28;20024;-86
2021/12/09 02:20:19;;;;;;;4.28;1.98;;;;;;;0.03;100.00;91707.13;2097055;28;20123;-86
2021/12/09 02:21:24;;;;;;;5.13;2.10;;;;;;;0.03;100.00;91701.88;2094390;28;20032;-86
2021/12/09 02:22:28;;;;;;;4.80;1.80;;;;;;;0.11;100.00;91701.44;2097746;28;20028;-85
2021/12/09 02:23:28;;;;;;;7.38;2.00;;;;;;;-0.05;100.00;91701.88;2090043;28;20021;-87
2021/12/09 02:24:30;;;;;;;4.15;2.00;;;;;;;-0.01;100.00;91707.13;2104344;28;20052;-86
2021/12/09 02:25:30;;;;;;;4.78;2.10;;;;;;;-0.05;100.00;91711.66;2098958;28;20024;-85
2021/12/09 02:26:35;;;;;;;6.45;2.10;;;;;;;0.04;100.00;91713.84;2097481;28;20084;-86
2021/12/09 02:27:50;;;;;;;3.95;2.00;;;;;;;-0.09;100.00;91719.56;2095440;28;20025;-86
2021/12/09 02:28:53;;;;;;;5.93;1.85;;;;;;;-0.15;100.00;91715.09;2095450;28;20025;-86
2021/12/09 02:29:55;;;;;;;6.45;2.10;;;;;;;-0.01;100.00;91717.63;2110637;28;20015;-86
2021/12/09 02:30:56;;;;;;;4.13;2.10;;;;;;;-0.07;100.00;91721.81;2100807;28;20033;-86
2021/12/09 02:31:58;;;;;;;6.50;1.95;;;;;;;0.19;100.00;91720.53;2102421;28;20032;-86
2021/12/09 02:32:59;;;;;;;4.93;1.50;;;;;;;0.20;100.00;91724.66;2105711;28;20107;-86
2021/12/09 02:34:00;;;;;;;5.40;2.15;;;;;;;0.04;100.00;91729.63;2094660;28;20485;-86
2021/12/09 02:35:01;;;;;;;8.75;2.10;;;;;;;-0.18;100.00;91727.09;2094976;28;20020;-85
2021/12/09 02:36:04;;;;;;;5.60;2.60;;;;;;;-0.18;100.00;91721.84;2103444;28;20028;-85
2021/12/09 02:37:05;;;;;;;5.25;1.67;;;;;;;-0.20;100.00;91729.34;2097370;28;20557;-85
2021/12/09 02:38:09;;;;;;;6.30;1.73;;;;;;;0.12;100.00;91725.81;2097518;28;20024;-85
2021/12/09 02:39:13;;;;;;;6.47;1.85;;;;;;;0.03;100.00;91731.50;2106212;28;20020;-85
2021/12/09 02:40:19;;;;;;;5.03;1.80;;;;;;;0.17;100.00;91735.94;2097931;28;20024;-85
2021/12/09 02:41:27;;;;;;;6.47;2.20;;;;;;;0.03;100.00;91736.75;2089920;28;20523;-85
2021/12/09 02:42:34;;;;;;;4.30;1.90;;;;;;;-0.04;100.00;91734.94;2099251;28;20362;-85
2021/12/09 02:43:40;;;;;;;6.22;2.15;;;;;;;0.03;100.00;91741.25;2112024;28;20027;-85
2021/12/09 02:44:49;;;;;;;4.68;2.00;;;;;;;0.04;100.00;91734.88;2100315;28;20028;-86
2021/12/09 02:45:53;;;;;;;8.93;2.33;;;;;;;-0.10;100.00;91736.44;2095232;28;20028;-85
2021/12/09 02:46:56;;;;;;;4.20;1.45;;;;;;;-0.09;100.00;91739.81;2102467;28;20028;-85
2021/12/09 02:48:09;;;;;;;5.53;1.60;;;;;;;-0.14;100.00;91748.09;2092150;28;20028;-86
2021/12/09 02:49:19;;;;;;;9.48;2.05;;;;;;;-0.10;100.00;91735.69;2090949;28;20093;-85
2021/12/09 02:50:22;;;;;;;;;;;;;;;-0.20;100.00;91747.00;2100390;28;20027;-85
2021/12/09 02:51:27;;;;;;;1.83;1.27;;;;;;;-0.25;100.00;91750.75;2091622;28;19920;-84
2021/12/09 02:52:28;;;;;;;2.30;1.60;;;;;;;-0.19;100.00;91745.84;2089280;28;20025;-86
2021/12/09 02:53:29;;;;;;;6.20;1.63;;;;;;;-0.26;100.00;91747.41;2090438;28;20049;-86
2021/12/09 02:54:31;;;;;;;7.13;1.63;;;;;;;-0.14;100.00;91750.72;2089149;28;20556;-85
2021/12/09 02:55:34;;;;;;;5.07;1.45;;;;;;;-0.23;100.00;91750.38;2090861;28;20360;-86
2021/12/09 02:56:35;;;;;;;5.38;1.65;;;;;;;-0.27;100.00;91756.38;2091109;28;20161;-86
2021/12/09 02:57:41;;;;;;;2.63;1.50;;;;;;;-0.13;100.00;91746.94;2091146;28;20059;-85
2021/12/09 02:58:44;;;;;;;5.90;1.70;;;;;;;-0.27;100.00;91761.63;2106389;28;20098;-85
2021/12/09 02:59:50;;;;;;;7.15;1.80;;;;;;;-0.23;100.00;91761.63;2102041;28;20027;-85
2021/12/09 03:00:51;;;;;;;5.07;1.98;;;;;;;-0.32;100.00;91759.41;2094081;28;20104;-86
2021/12/09 03:02:01;;;;;;;5.40;1.95;;;;;;;-0.38;100.00;91765.44;2097987;28;20433;-85
2021/12/09 03:03:08;;;;;;;8.90;2.25;;;;;;;-0.30;100.00;91764.28;2092658;28;20025;-86
2021/12/09 03:04:11;;;;;;;5.40;1.77;;;;;;;-0.30;100.00;91764.28;2107539;27;20524;-86
2021/12/09 03:05:14;;;;;;;5.45;1.80;;;;;;;-0.31;100.00;91774.03;2115785;28;20479;-85
2021/12/09 03:06:21;;;;;;;7.53;2.20;;;;;;;-0.26;100.00;91762.41;2107658;28;20047;-85
2021/12/09 03:07:38;;;;;;;3.33;1.80;;;;;;;-0.21;100.00;91759.38;2099731;28;20029;-85
2021/12/09 03:08:43;;;;;;;5.35;1.70;;;;;;;-0.27;100.00;91761.63;2106981;28;20051;-85
2021/12/09 03:09:54;;;;;;;4.10;1.67;;;;;;;-0.40;100.00;91767.69;2091054;28;20108;-85
2021/12/09 03:10:58;;;;;;;4.13;1.90;;;;;;;-0.37;100.00;91764.31;2089811;28;20478;-86
2021/12/09 03:12:04;;;;;;;3.60;1.83;;;;;;;-0.26;100.00;91771.03;2094236;28;20486;-85
2021/12/09 03:13:10;;;;;;;3.85;1.70;;;;;;;-0.26;100.00;91768.41;2097388;28;20096;-85
2021/12/09 03:14:11;;;;;;;6.78;1.80;;;;;;;-0.12;100.00;91767.59;2092626;28;20021;-84
2021/12/09 03:15:15;;;;;;;3.10;1.50;;;;;;;-0.20;100.00;91774.00;2090904;28;20374;-85
2021/12/09 03:16:22;;;;;;;4.63;1.85;;;;;;;-0.26;100.00;91772.91;2099325;28;20028;-85
2021/12/09 03:17:24;;;;;;;4.30;1.58;;;;;;;-0.29;100.00;91773.66;2099316;28;20013;-85
2021/12/09 03:18:26;;;;;;;8.70;1.70;;;;;;;-0.30;100.00;91767.66;2090618;28;20021;-86
2021/12/09 03:19:53;;;;;;;7.25;1.95;;;;;;;-0.21;100.00;91774.38;2098965;28;20021;-85
2021/12/09 03:20:54;;;;;;;7.32;1.63;;;;;;;-0.26;100.00;91770.28;2100786;28;20111;-85
2021/12/09 03:21:57;;;;;;;3.90;1.58;;;;;;;-0.26;100.00;91768.41;2098911;28;20143;-86
2021/12/09 03:22:57;;;;;;;5.22;1.77;;;;;;;-0.33;100.00;91771.03;2107136;28;20024;-86
2021/12/09 03:23:59;;;;;;;5.47;1.70;;;;;;;-0.30;100.00;91765.03;2090379;28;20359;-85
2021/12/09 03:25:01;;;;;;;6.25;1.75;;;;;;;-0.15;100.00;91770.22;2090800;28;20048;-85
2021/12/09 03:26:02;;;;;;;4.95;1.83;;;;;;;-0.03;100.00;91770.56;2090797;28;20021;-84
2021/12/09 03:27:04;;;;;;;4.47;2.00;;;;;;;-0.10;100.00;91769.81;2087778;28;20021;-85
2021/12/09 03:28:10;;;;;;;5.80;1.77;;;;;;;0.13;100.00;91759.63;2096857;28;20020;-85
2021/12/09 03:29:17;;;;;;;3.05;1.55;;;;;;;-0.04;100.00;91768.31;2107226;28;20099;-85
2021/12/09 03:30:24;;;;;;;6.13;1.88;;;;;;;-0.16;100.00;91766.84;2115226;28;20464;-85
2021/12/09 03:31:30;;;;;;;4.05;1.70;;;;;;;-0.15;100.00;91770.22;2108577;27;20024;-86
2021/12/09 03:32:32;;;;;;;5.35;2.00;;;;;;;-0.22;100.00;91765.75;2106979;28;20056;-85
2021/12/09 03:33:35;;;;;;;5.88;2.42;;;;;;;-0.10;100.00;91775.81;2107254;28;20099;-85
2021/12/09 03:34:40;;;;;;;2.42;1.60;;;;;;;-0.29;100.00;91771.03;2115384;28;20102;-85
2021/12/09 03:35:41;;;;;;;2.70;1.55;;;;;;;-0.14;100.00;91775.09;2096336;28;20037;-86
2021/12/09 03:36:49;;;;;;;7.13;1.95;;;;;;;-0.10;100.00;91769.81;2093311;28;20039;-85
2021/12/09 03:37:50;;;;;;;8.48;2.33;;;;;;;-0.20;100.00;91774.00;2096231;28;20033;-84
2021/12/09 03:38:58;;;;;;;4.07;1.95;;;;;;;-0.28;100.00;91767.28;2111017;28;20031;-85
2021/12/09 03:39:59;;;;;;;7.30;2.28;;;;;;;-0.03;100.00;91773.19;2105178;28;20100;-85
2021/12/09 03:41:01;;;;;;;6.60;1.60;;;;;;;0.08;100.00;91770.50;2101507;28;20656;-85
2021/12/09 03:42:05;;;;;;;5.80;1.63;;;;;;;-0.08;100.00;91759.72;2096036;28;20020;-86
2021/12/09 03:43:06;;;;;;;6.20;2.15;;;;;;;-0.04;100.00;91766.44;2101141;28;20031;-86
2021/12/09 03:44:07;;;;;;;5.78;1.42;;;;;;;-0.12;100.00;91759.72;2103136;28;20159;-85
2021/12/09 03:45:09;;;;;;;6.93;1.83;;;;;;;-0.17;100.00;91768.00;2100468;28;20134;-85
2021/12/09 03:46:10;;;;;;;5.60;1.67;;;;;;;0.02;100.00;91753.66;2113905;28;20988;-85
2021/12/09 03:47:14;;;;;;;3.50;1.70;;;;;;;0.06;100.00;91761.53;2091452;28;20024;-85
2021/12/09 03:48:15;;;;;;;3.17;1.77;;;;;;;0.04;100.00;91763.75;2090369;28;20410;-86
2021/12/09 03:49:16;;;;;;;3.75;1.80;;;;;;;0.04;100.00;91761.88;2098530;28;20075;-85
2021/12/09 03:50:22;;;;;;;5.88;1.98;;;;;;;-0.02;100.00;91766.03;2098002;28;20028;-86
2021/12/09 03:51:24;;;;;;;4.72;1.30;;;;;;;-0.05;100.00;91764.91;2095478;28;20027;-84
2021/12/09 03:52:26;;;;;;;3.28;1.73;;;;;;;0.16;100.00;91761.44;2106862;28;20016;-84
2021/12/09 03:53:27;;;;;;;6.05;2.05;;;;;;;-0.01;100.00;91754.41;2098491;28;20032;-84
2021/12/09 03:54:28;;;;;;;2.30;1.60;;;;;;;-0.02;100.00;91758.16;2092790;28;20029;-85
2021/12/09 03:55:29;;;;;;;5.13;1.80;;;;;;;-0.05;100.00;91759.66;2094988;28;20021;-85
2021/12/09 03:56:32;;;;;;;10.73;2.40;;;;;;;-0.11;100.00;91763.84;2091298;28;20063;-85
2021/12/09 03:57:35;;;;;;;7.70;1.88;;;;;;;-0.07;100.00;91771.69;2088845;28;20571;-85
2021/12/09 03:58:40;;;;;;;3.58;1.95;;;;;;;-0.10;100.00;91767.94;2096945;28;20515;-84
2021/12/09 03:59:48;;;;;;;7.82;1.95;;;;;;;-0.08;100.00;91773.59;2096024;28;20025;-85
2021/12/09 04:00:54;;;;;;;5.93;2.15;;;;;;;-0.06;100.00;91776.56;2084215;28;20531;-85
2021/12/09 04:01:58;;;;;;;3.42;1.80;;;;;;;-0.17;100.00;91772.50;2095562;28;20717;-84
2021/12/09 04:02:59;;;;;;;3.70;2.08;;;;;;;-0.14;100.00;91774.34;2096039;28;20032;-85
2021/12/09 04:04:00;;;;;;;5.68;2.00;;;;;;;-0.13;100.00;91776.59;2093138;28;20086;-85
2021/12/09 04:05:07;;;;;;;6.32;1.90;;;;;;;-0.21;100.00;91775.13;2098480;28;20117;-85
2021/12/09 04:06:11;;;;;;;7.00;2.53;;;;;;;-0.20;100.00;91781.88;2107686;28;20059;-84
2021/12/09 04:07:16;;;;;;;4.43;1.83;;;;;;;-0.21;100.00;91780.38;2106547;28;20069;-85
2021/12/09 04:08:21;;;;;;;3.22;1.85;;;;;;;-0.28;100.00;91780.41;2106313;28;20024;-86
2021/12/09 04:09:25;;;;;;;5.10;2.10;;;;;;;-0.18;100.00;91776.22;2090972;28;20029;-84
2021/12/09 04:10:26;;;;;;;7.47;1.88;;;;;;;-0.19;100.00;91780.00;2099162;28;20045;-85
2021/12/09 04:11:35;;;;;;;3.80;2.05;;;;;;;-0.14;100.00;91779.59;2098584;28;20021;-85
2021/12/09 04:12:37;;;;;;;6.18;2.35;;;;;;;-0.20;100.00;91781.88;2100366;28;20028;-86
2021/12/09 04:13:39;;;;;;;2.65;1.83;;;;;;;-0.27;100.00;91781.88;2104151;28;20024;-85
2021/12/09 04:14:44;;;;;;;5.85;2.28;;;;;;;-0.29;100.00;91778.91;2098426;28;20154;-85
2021/12/09 04:15:45;;;;;;;5.10;2.20;;;;;;;-0.27;100.00;91776.63;2090073;28;20426;-85
2021/12/09 04:16:49;;;;;;;3.33;1.77;;;;;;;-0.28;100.00;91786.41;2094361;28;20099;-84
2021/12/09 04:17:50;;;;;;;3.05;2.08;;;;;;;-0.33;100.00;91780.78;2106975;28;20028;-85
2021/12/09 04:18:54;;;;;;;4.30;2.50;;;;;;;-0.24;100.00;91783.00;2106813;28;20060;-86
2021/12/09 04:19:58;;;;;;;7.22;2.83;;;;;;;-0.13;100.00;91783.72;2102412;28;20016;-85
2021/12/09 04:21:04;;;;;;;5.75;3.15;;;;;;;-0.11;100.00;91779.59;2087559;28;20017;-85
2021/12/09 04:22:10;;;;;;;7.30;3.20;;;;;;;-0.06;100.00;91779.19;2091321;28;20017;-85
2021/12/09 04:23:13;;;;;;;6.68;3.60;;;;;;;-0.27;100.00;91787.13;2097531;28;20481;-85
2021/12/09 04:24:20;;;;;;;7.57;3.50;;;;;;;-0.20;100.00;91789.00;2107434;27;20016;-85
2021/12/09 04:25:29;;;;;;;4.65;2.83;;;;;;;-0.30;100.00;91786.03;2106636;28;20393;-86
2021/12/09 04:26:46;;;;;;;8.65;2.58;;;;;;;-0.24;100.00;91791.63;2085552;28;20471;-86
2021/12/09 04:28:03;;;;;;;6.95;2.50;;;;;;;-0.26;100.00;91796.53;2100248;28;20028;-85
2021/12/09 04:29:07;;;;;;;2.25;2.00;;;;;;;-0.26;100.00;91793.91;2108917;27;20608;-85
2021/12/09 04:30:12;;;;;;;2.50;1.70;;;;;;;-0.30;100.00;91787.91;2108947;28;20443;-86
2021/12/09 04:31:14;;;;;;;5.30;1.73;;;;;;;-0.34;100.00;91792.44;2098273;28;20047;-86
2021/12/09 04:32:20;;;;;;;4.43;1.63;;;;;;;-0.22;100.00;91797.28;2104526;28;20054;-86
2021/12/09 04:33:26;;;;;;;3.40;1.80;;;;;;;-0.23;100.00;91797.63;2099271;28;20036;-85
2021/12/09 04:34:27;;;;;;;3.10;1.83;;;;;;;-0.07;100.00;91801.34;2091285;28;20041;-86
2021/12/09 04:35:29;;;;;;;4.53;2.10;;;;;;;-0.10;100.00;91796.84;2090103;28;20039;-86
2021/12/09 04:36:30;;;;;;;5.63;1.90;;;;;;;-0.13;100.00;91799.47;2098362;28;20028;-86
2021/12/09 04:37:31;;;;;;;9.38;2.35;;;;;;;-0.19;100.00;91804.38;2092350;28;20108;-86
2021/12/09 04:38:31;;;;;;;5.32;1.75;;;;;;;-0.23;100.00;91800.25;2097062;28;20496;-86
2021/12/09 04:39:33;;;;;;;3.70;1.95;;;;;;;-0.15;100.00;91805.09;2090040;28;20044;-85
2021/12/09 04:40:34;;;;;;;4.13;1.90;;;;;;;-0.11;100.00;91807.72;2099845;28;20120;-86
2021/12/09 04:41:35;;;;;;;4.43;1.95;;;;;;;-0.21;100.00;91806.63;2104814;28;20024;-86
2021/12/09 04:42:36;;;;;;;4.85;1.90;;;;;;;-0.27;100.00;91802.88;2104403;28;20101;-86
2021/12/09 04:43:40;;;;;;;5.68;1.88;;;;;;;-0.31;100.00;91808.19;2092169;28;20033;-86
2021/12/09 04:44:41;;;;;;;6.65;1.90;;;;;;;-0.24;100.00;91802.13;2095931;28;20030;-86
2021/12/09 04:45:43;;;;;;;5.25;2.38;;;;;;;-0.09;100.00;91808.09;2092722;28;20091;-85
2021/12/09 04:46:44;;;;;;;3.75;1.90;;;;;;;0.11;100.00;91803.16;2103196;28;20363;-86
2021/12/09 04:47:49;;;;;;;3.80;1.63;;;;;;;0.16;100.00;91798.22;2109432;28;20024;-85
2021/12/09 04:48:53;;;;;;;4.82;1.83;;;;;;;0.23;100.00;91813.22;2114940;28;20357;-85
2021/12/09 04:50:00;;;;;;;3.55;1.20;;;;;;;0.24;100.00;91807.59;2102621;28;20056;-85
2021/12/09 04:51:07;;;;;;;4.20;1.42;;;;;;;0.12;100.00;91809.88;2091331;28;20041;-85
2021/12/09 04:52:12;;;;;;;2.28;1.60;;;;;;;-0.03;100.00;91806.59;2091376;28;20746;-85
2021/12/09 04:53:14;;;;;;;4.05;1.65;;;;;;;0.03;100.00;91810.28;2092017;28;20044;-86
2021/12/09 04:54:15;;;;;;;6.38;2.00;;;;;;;-0.10;100.00;91814.47;2105613;28;20030;-85
2021/12/09 04:55:16;;;;;;;4.97;2.00;;;;;;;-0.14;100.00;91814.47;2098182;28;20111;-85
2021/12/09 04:56:17;;;;;;;7.13;1.77;;;;;;;-0.04;100.00;91826.09;2098060;28;20534;-85
2021/12/09 04:57:18;;;;;;;4.97;1.88;;;;;;;-0.03;100.00;91820.47;2098106;28;20039;-85
2021/12/09 04:58:20;;;;;;;4.15;1.73;;;;;;;-0.22;100.00;91820.91;2097765;28;20111;-85